sensor_id;sensor_type;location;lat;lon;timestamp;noise_LAeq;noise_LA_min;noise_LA_max;noise_LA01;noise_LA95
76382;Laerm;65202;52.520;10.528;2023-04-24T00:02:05;41.77;35.05;53.80;;
76382;Laerm;65202;52.520;10.528;2023-04-24T00:04:34;41.13;35.16;54.06;;
76382;Laerm;65202;52.520;10.528;2023-04-24T00:07:01;41.37;33.61;53.46;;
76382;Laerm;65202;52.520;10.528;2023-04-24T00:09:29;40.01;33.66;53.40;;
76382;Laerm;65202;52.520;10.528;2023-04-24T00:11:56;40.22;33.92;54.29;;
76382;Laerm;65202;52.520;10.528;2023-04-24T00:14:24;40.17;33.96;54.01;;
76382;Laerm;65202;52.520;10.528;2023-04-24T00:16:51;40.04;33.83;53.01;;
76382;Laerm;65202;52.520;10.528;2023-04-24T00:19:18;40.04;33.44;54.36;;
76382;Laerm;65202;52.520;10.528;2023-04-24T00:21:48;40.05;33.79;55.23;;
76382;Laerm;65202;52.520;10.528;2023-04-24T00:24:18;40.28;34.36;54.65;;
76382;Laerm;65202;52.520;10.528;2023-04-24T00:26:46;40.57;34.54;54.49;;
76382;Laerm;65202;52.520;10.528;2023-04-24T00:29:13;41.52;33.53;53.50;;
76382;Laerm;65202;52.520;10.528;2023-04-24T00:31:40;40.30;33.66;54.42;;
76382;Laerm;65202;52.520;10.528;2023-04-24T00:34:08;40.42;33.97;53.68;;
76382;Laerm;65202;52.520;10.528;2023-04-24T00:36:35;40.27;34.05;55.48;;
76382;Laerm;65202;52.520;10.528;2023-04-24T00:39:02;41.07;33.81;54.54;;
76382;Laerm;65202;52.520;10.528;2023-04-24T00:41:30;41.30;33.15;53.60;;
76382;Laerm;65202;52.520;10.528;2023-04-24T00:43:57;40.95;34.10;55.64;;
76382;Laerm;65202;52.520;10.528;2023-04-24T00:46:24;40.17;33.54;54.40;;
76382;Laerm;65202;52.520;10.528;2023-04-24T00:48:52;41.83;34.84;54.03;;
76382;Laerm;65202;52.520;10.528;2023-04-24T00:51:19;40.92;33.96;53.75;;
76382;Laerm;65202;52.520;10.528;2023-04-24T00:53:47;40.32;33.96;54.54;;
76382;Laerm;65202;52.520;10.528;2023-04-24T00:56:15;40.39;33.35;53.69;;
76382;Laerm;65202;52.520;10.528;2023-04-24T00:58:43;40.25;33.97;54.51;;
76382;Laerm;65202;52.520;10.528;2023-04-24T01:01:10;40.72;33.90;54.32;;
76382;Laerm;65202;52.520;10.528;2023-04-24T01:03:39;40.94;33.89;54.15;;
76382;Laerm;65202;52.520;10.528;2023-04-24T01:06:09;40.10;33.05;53.94;;
76382;Laerm;65202;52.520;10.528;2023-04-24T01:08:37;40.46;33.60;53.79;;
76382;Laerm;65202;52.520;10.528;2023-04-24T01:11:05;40.90;33.84;53.88;;
76382;Laerm;65202;52.520;10.528;2023-04-24T01:13:33;40.18;33.67;53.20;;
76382;Laerm;65202;52.520;10.528;2023-04-24T01:16:01;39.89;32.76;54.03;;
76382;Laerm;65202;52.520;10.528;2023-04-24T01:18:29;40.61;32.81;53.80;;
76382;Laerm;65202;52.520;10.528;2023-04-24T01:21:03;40.50;33.70;54.92;;
76382;Laerm;65202;52.520;10.528;2023-04-24T01:23:30;40.72;33.86;54.93;;
76382;Laerm;65202;52.520;10.528;2023-04-24T01:25:58;40.94;33.69;56.59;;
76382;Laerm;65202;52.520;10.528;2023-04-24T01:28:25;42.89;33.93;55.12;;
76382;Laerm;65202;52.520;10.528;2023-04-24T01:30:52;40.62;33.31;54.92;;
76382;Laerm;65202;52.520;10.528;2023-04-24T01:33:21;40.87;33.64;54.02;;
76382;Laerm;65202;52.520;10.528;2023-04-24T01:35:49;40.83;34.20;54.10;;
76382;Laerm;65202;52.520;10.528;2023-04-24T01:38:17;40.58;34.12;54.51;;
76382;Laerm;65202;52.520;10.528;2023-04-24T01:40:44;40.21;32.75;54.57;;
76382;Laerm;65202;52.520;10.528;2023-04-24T01:43:13;40.97;33.82;54.55;;
76382;Laerm;65202;52.520;10.528;2023-04-24T01:45:40;41.57;34.27;54.67;;
76382;Laerm;65202;52.520;10.528;2023-04-24T01:48:07;40.70;32.77;53.31;;
76382;Laerm;65202;52.520;10.528;2023-04-24T01:50:34;41.48;34.20;54.46;;
76382;Laerm;65202;52.520;10.528;2023-04-24T01:53:02;40.71;34.37;54.98;;
76382;Laerm;65202;52.520;10.528;2023-04-24T01:55:29;40.83;33.39;52.80;;
76382;Laerm;65202;52.520;10.528;2023-04-24T01:57:57;41.63;34.14;53.58;;
76382;Laerm;65202;52.520;10.528;2023-04-24T02:00:26;40.99;34.40;52.59;;
76382;Laerm;65202;52.520;10.528;2023-04-24T02:02:53;40.67;33.78;53.52;;
76382;Laerm;65202;52.520;10.528;2023-04-24T02:05:21;42.77;33.24;55.47;;
76382;Laerm;65202;52.520;10.528;2023-04-24T02:07:48;41.15;34.31;54.25;;
76382;Laerm;65202;52.520;10.528;2023-04-24T02:10:15;41.85;34.95;53.87;;
76382;Laerm;65202;52.520;10.528;2023-04-24T02:12:42;41.68;34.18;53.36;;
76382;Laerm;65202;52.520;10.528;2023-04-24T02:15:10;41.42;34.37;53.90;;
76382;Laerm;65202;52.520;10.528;2023-04-24T02:17:38;40.88;34.03;54.13;;
76382;Laerm;65202;52.520;10.528;2023-04-24T02:20:07;41.61;35.12;54.28;;
76382;Laerm;65202;52.520;10.528;2023-04-24T02:22:34;41.50;34.38;54.57;;
76382;Laerm;65202;52.520;10.528;2023-04-24T02:25:02;41.90;34.62;54.80;;
76382;Laerm;65202;52.520;10.528;2023-04-24T02:27:29;41.98;34.77;54.80;;
76382;Laerm;65202;52.520;10.528;2023-04-24T02:29:57;41.35;34.91;54.04;;
76382;Laerm;65202;52.520;10.528;2023-04-24T02:32:24;43.04;35.58;54.90;;
76382;Laerm;65202;52.520;10.528;2023-04-24T02:34:51;44.19;35.27;54.75;;
76382;Laerm;65202;52.520;10.528;2023-04-24T02:37:18;42.48;35.91;54.98;;
76382;Laerm;65202;52.520;10.528;2023-04-24T02:39:45;45.84;33.97;63.13;;
76382;Laerm;65202;52.520;10.528;2023-04-24T02:42:13;40.90;34.24;54.47;;
76382;Laerm;65202;52.520;10.528;2023-04-24T02:44:40;41.89;35.25;53.83;;
76382;Laerm;65202;52.520;10.528;2023-04-24T02:47:07;41.52;35.35;53.71;;
76382;Laerm;65202;52.520;10.528;2023-04-24T02:49:35;42.82;35.32;58.76;;
76382;Laerm;65202;52.520;10.528;2023-04-24T02:52:03;42.42;35.79;54.31;;
76382;Laerm;65202;52.520;10.528;2023-04-24T02:54:30;44.82;36.17;63.11;;
76382;Laerm;65202;52.520;10.528;2023-04-24T02:56:57;47.13;36.53;62.67;;
76382;Laerm;65202;52.520;10.528;2023-04-24T02:59:24;49.44;35.84;63.95;;
76382;Laerm;65202;52.520;10.528;2023-04-24T03:01:54;49.50;36.43;63.26;;
76382;Laerm;65202;52.520;10.528;2023-04-24T03:04:21;48.95;36.95;63.40;;
76382;Laerm;65202;52.520;10.528;2023-04-24T03:06:49;47.87;38.70;61.90;;
76382;Laerm;65202;52.520;10.528;2023-04-24T03:09:20;47.08;37.70;58.84;;
76382;Laerm;65202;52.520;10.528;2023-04-24T03:11:48;47.71;38.57;57.50;;
76382;Laerm;65202;52.520;10.528;2023-04-24T03:14:16;46.60;38.98;54.85;;
76382;Laerm;65202;52.520;10.528;2023-04-24T03:16:43;47.88;40.38;61.11;;
76382;Laerm;65202;52.520;10.528;2023-04-24T03:19:10;49.58;39.30;62.48;;
76382;Laerm;65202;52.520;10.528;2023-04-24T03:21:38;51.43;40.10;66.46;;
76382;Laerm;65202;52.520;10.528;2023-04-24T03:24:08;49.51;40.10;61.25;;
76382;Laerm;65202;52.520;10.528;2023-04-24T03:26:36;46.44;39.09;59.20;;
76382;Laerm;65202;52.520;10.528;2023-04-24T03:29:03;50.07;41.78;63.19;;
76382;Laerm;65202;52.520;10.528;2023-04-24T03:31:30;51.52;39.68;63.51;;
76382;Laerm;65202;52.520;10.528;2023-04-24T03:33:57;49.91;41.11;59.41;;
76382;Laerm;65202;52.520;10.528;2023-04-24T03:36:24;51.23;41.18;60.84;;
76382;Laerm;65202;52.520;10.528;2023-04-24T03:38:53;51.01;41.19;61.27;;
76382;Laerm;65202;52.520;10.528;2023-04-24T03:41:20;51.60;41.22;61.19;;
76382;Laerm;65202;52.520;10.528;2023-04-24T03:43:47;52.05;42.09;63.57;;
76382;Laerm;65202;52.520;10.528;2023-04-24T03:46:14;50.91;40.68;60.68;;
76382;Laerm;65202;52.520;10.528;2023-04-24T03:48:42;50.76;41.46;59.07;;
76382;Laerm;65202;52.520;10.528;2023-04-24T03:51:09;51.31;40.52;62.87;;
76382;Laerm;65202;52.520;10.528;2023-04-24T03:53:36;50.80;39.64;60.75;;
76382;Laerm;65202;52.520;10.528;2023-04-24T03:56:04;50.64;40.56;63.61;;
76382;Laerm;65202;52.520;10.528;2023-04-24T03:58:31;49.48;39.99;58.09;;
76382;Laerm;65202;52.520;10.528;2023-04-24T04:00:58;49.54;38.64;59.29;;
76382;Laerm;65202;52.520;10.528;2023-04-24T04:03:25;49.92;39.89;67.57;;
76382;Laerm;65202;52.520;10.528;2023-04-24T04:05:53;49.09;40.00;64.28;;
76382;Laerm;65202;52.520;10.528;2023-04-24T04:08:21;47.85;41.66;55.64;;
76382;Laerm;65202;52.520;10.528;2023-04-24T04:10:48;48.64;40.38;61.14;;
76382;Laerm;65202;52.520;10.528;2023-04-24T04:13:15;51.29;40.93;63.11;;
76382;Laerm;65202;52.520;10.528;2023-04-24T04:15:42;49.26;39.68;64.17;;
76382;Laerm;65202;52.520;10.528;2023-04-24T04:18:10;49.16;41.55;61.14;;
76382;Laerm;65202;52.520;10.528;2023-04-24T04:20:37;50.22;41.73;62.01;;
76382;Laerm;65202;52.520;10.528;2023-04-24T04:23:04;49.91;38.31;71.26;;
76382;Laerm;65202;52.520;10.528;2023-04-24T04:25:31;48.77;40.48;65.71;;
76382;Laerm;65202;52.520;10.528;2023-04-24T04:27:59;48.49;41.65;62.10;;
76382;Laerm;65202;52.520;10.528;2023-04-24T04:30:26;46.63;39.93;61.01;;
76382;Laerm;65202;52.520;10.528;2023-04-24T04:32:56;50.38;40.94;67.66;;
76382;Laerm;65202;52.520;10.528;2023-04-24T04:35:23;50.52;39.70;65.68;;
76382;Laerm;65202;52.520;10.528;2023-04-24T04:37:51;51.48;41.32;68.33;;
76382;Laerm;65202;52.520;10.528;2023-04-24T04:40:19;48.39;41.02;59.22;;
76382;Laerm;65202;52.520;10.528;2023-04-24T04:42:46;49.12;41.04;62.20;;
76382;Laerm;65202;52.520;10.528;2023-04-24T04:45:14;48.72;40.77;60.51;;
76382;Laerm;65202;52.520;10.528;2023-04-24T04:47:43;50.87;41.55;66.35;;
76382;Laerm;65202;52.520;10.528;2023-04-24T04:50:11;48.90;41.60;63.32;;
76382;Laerm;65202;52.520;10.528;2023-04-24T04:52:38;48.01;41.44;57.81;;
76382;Laerm;65202;52.520;10.528;2023-04-24T04:55:06;47.37;39.19;57.98;;
76382;Laerm;65202;52.520;10.528;2023-04-24T04:57:33;51.25;42.61;64.89;;
76382;Laerm;65202;52.520;10.528;2023-04-24T05:00:00;49.40;41.57;65.27;;
76382;Laerm;65202;52.520;10.528;2023-04-24T05:02:28;47.75;41.79;63.31;;
76382;Laerm;65202;52.520;10.528;2023-04-24T05:04:55;46.83;40.09;58.55;;
76382;Laerm;65202;52.520;10.528;2023-04-24T05:07:23;49.76;40.71;61.16;;
76382;Laerm;65202;52.520;10.528;2023-04-24T05:09:50;48.20;41.40;60.04;;
76382;Laerm;65202;52.520;10.528;2023-04-24T05:12:18;49.46;42.17;59.29;;
76382;Laerm;65202;52.520;10.528;2023-04-24T05:14:45;51.89;41.19;67.33;;
76382;Laerm;65202;52.520;10.528;2023-04-24T05:17:12;49.51;41.20;62.06;;
76382;Laerm;65202;52.520;10.528;2023-04-24T05:19:39;49.31;41.35;62.99;;
76382;Laerm;65202;52.520;10.528;2023-04-24T05:22:07;49.51;42.59;59.69;;
76382;Laerm;65202;52.520;10.528;2023-04-24T05:24:35;47.56;40.60;56.83;;
76382;Laerm;65202;52.520;10.528;2023-04-24T05:27:03;52.73;41.48;70.53;;
76382;Laerm;65202;52.520;10.528;2023-04-24T05:29:31;51.36;40.94;68.39;;
76382;Laerm;65202;52.520;10.528;2023-04-24T05:32:00;48.54;40.31;67.05;;
76382;Laerm;65202;52.520;10.528;2023-04-24T05:34:27;46.71;39.92;58.05;;
76382;Laerm;65202;52.520;10.528;2023-04-24T05:36:54;48.65;41.60;60.28;;
76382;Laerm;65202;52.520;10.528;2023-04-24T05:39:22;49.84;39.45;63.37;;
76382;Laerm;65202;52.520;10.528;2023-04-24T05:41:49;50.42;39.83;66.65;;
76382;Laerm;65202;52.520;10.528;2023-04-24T05:44:16;48.21;39.30;62.51;;
76382;Laerm;65202;52.520;10.528;2023-04-24T05:46:43;47.76;40.59;59.30;;
76382;Laerm;65202;52.520;10.528;2023-04-24T05:49:10;49.32;40.76;59.68;;
76382;Laerm;65202;52.520;10.528;2023-04-24T05:51:38;49.14;40.26;62.43;;
76382;Laerm;65202;52.520;10.528;2023-04-24T05:54:06;50.92;39.65;63.02;;
76382;Laerm;65202;52.520;10.528;2023-04-24T05:56:33;49.36;40.10;65.52;;
76382;Laerm;65202;52.520;10.528;2023-04-24T05:59:01;49.63;41.97;62.04;;
76382;Laerm;65202;52.520;10.528;2023-04-24T06:01:28;47.54;41.05;61.33;;
76382;Laerm;65202;52.520;10.528;2023-04-24T06:03:55;50.43;40.63;62.70;;
76382;Laerm;65202;52.520;10.528;2023-04-24T06:06:23;46.73;40.73;55.56;;
76382;Laerm;65202;52.520;10.528;2023-04-24T06:08:51;49.94;41.29;63.55;;
76382;Laerm;65202;52.520;10.528;2023-04-24T06:11:18;48.80;41.97;57.39;;
76382;Laerm;65202;52.520;10.528;2023-04-24T06:13:45;48.36;40.85;59.33;;
76382;Laerm;65202;52.520;10.528;2023-04-24T06:16:13;48.77;40.33;59.25;;
76382;Laerm;65202;52.520;10.528;2023-04-24T06:18:40;48.99;39.01;66.31;;
76382;Laerm;65202;52.520;10.528;2023-04-24T06:21:07;51.87;40.33;68.43;;
76382;Laerm;65202;52.520;10.528;2023-04-24T06:23:34;49.10;41.50;55.73;;
76382;Laerm;65202;52.520;10.528;2023-04-24T06:26:01;48.13;41.00;60.22;;
76382;Laerm;65202;52.520;10.528;2023-04-24T06:28:29;48.56;41.18;61.92;;
76382;Laerm;65202;52.520;10.528;2023-04-24T06:30:56;47.20;39.98;60.33;;
76382;Laerm;65202;52.520;10.528;2023-04-24T06:33:23;48.60;39.43;63.64;;
76382;Laerm;65202;52.520;10.528;2023-04-24T06:35:50;46.61;39.34;56.08;;
76382;Laerm;65202;52.520;10.528;2023-04-24T06:38:17;47.63;40.68;60.65;;
76382;Laerm;65202;52.520;10.528;2023-04-24T06:40:45;48.54;40.81;60.11;;
76382;Laerm;65202;52.520;10.528;2023-04-24T06:43:12;45.73;39.84;54.40;;
76382;Laerm;65202;52.520;10.528;2023-04-24T06:45:39;48.59;41.30;63.17;;
76382;Laerm;65202;52.520;10.528;2023-04-24T06:48:07;62.01;38.34;75.77;;
76382;Laerm;65202;52.520;10.528;2023-04-24T06:50:34;66.99;58.46;75.59;;
76382;Laerm;65202;52.520;10.528;2023-04-24T06:53:02;62.25;50.41;70.12;;
76382;Laerm;65202;52.520;10.528;2023-04-24T06:55:29;60.51;41.70;67.28;;
76382;Laerm;65202;52.520;10.528;2023-04-24T06:57:56;59.66;53.13;67.83;;
76382;Laerm;65202;52.520;10.528;2023-04-24T07:00:24;56.59;38.38;62.18;;
76382;Laerm;65202;52.520;10.528;2023-04-24T07:02:51;56.88;40.86;67.95;;
76382;Laerm;65202;52.520;10.528;2023-04-24T07:05:19;48.80;38.94;65.17;;
76382;Laerm;65202;52.520;10.528;2023-04-24T07:07:48;57.63;40.52;63.97;;
76382;Laerm;65202;52.520;10.528;2023-04-24T07:10:17;57.95;52.82;65.33;;
76382;Laerm;65202;52.520;10.528;2023-04-24T07:12:45;54.77;37.80;61.98;;
76382;Laerm;65202;52.520;10.528;2023-04-24T07:15:12;57.33;52.56;65.25;;
76382;Laerm;65202;52.520;10.528;2023-04-24T07:17:39;57.89;51.08;69.17;;
76382;Laerm;65202;52.520;10.528;2023-04-24T07:20:11;53.07;37.95;78.94;;
76382;Laerm;65202;52.520;10.528;2023-04-24T07:22:38;58.39;52.74;66.82;;
76382;Laerm;65202;52.520;10.528;2023-04-24T07:25:07;57.18;38.80;68.76;;
76382;Laerm;65202;52.520;10.528;2023-04-24T07:27:35;58.28;53.20;66.00;;
76382;Laerm;65202;52.520;10.528;2023-04-24T07:30:04;55.89;38.42;65.39;;
76382;Laerm;65202;52.520;10.528;2023-04-24T07:32:31;58.31;45.20;63.65;;
76382;Laerm;65202;52.520;10.528;2023-04-24T07:34:59;50.63;38.48;58.49;;
76382;Laerm;65202;52.520;10.528;2023-04-24T07:37:28;48.39;40.87;60.34;;
76382;Laerm;65202;52.520;10.528;2023-04-24T07:39:55;47.86;42.02;60.68;;
76382;Laerm;65202;52.520;10.528;2023-04-24T07:42:22;47.27;40.38;69.15;;
76382;Laerm;65202;52.520;10.528;2023-04-24T07:44:49;50.38;40.79;67.65;;
76382;Laerm;65202;52.520;10.528;2023-04-24T07:47:18;46.31;39.21;61.30;;
76382;Laerm;65202;52.520;10.528;2023-04-24T07:49:45;48.83;40.10;69.04;;
76382;Laerm;65202;52.520;10.528;2023-04-24T07:52:12;48.40;38.46;63.16;;
76382;Laerm;65202;52.520;10.528;2023-04-24T07:54:39;46.86;38.92;59.05;;
76382;Laerm;65202;52.520;10.528;2023-04-24T07:57:07;52.18;38.46;64.05;;
76382;Laerm;65202;52.520;10.528;2023-04-24T07:59:35;53.38;40.54;70.22;;
76382;Laerm;65202;52.520;10.528;2023-04-24T08:02:02;49.08;38.44;61.62;;
76382;Laerm;65202;52.520;10.528;2023-04-24T08:04:29;50.71;38.05;69.36;;
76382;Laerm;65202;52.520;10.528;2023-04-24T08:06:56;51.02;37.92;68.43;;
76382;Laerm;65202;52.520;10.528;2023-04-24T08:09:24;47.46;37.55;63.97;;
76382;Laerm;65202;52.520;10.528;2023-04-24T08:11:53;46.26;37.85;63.69;;
76382;Laerm;65202;52.520;10.528;2023-04-24T08:14:20;51.68;37.78;70.67;;
76382;Laerm;65202;52.520;10.528;2023-04-24T08:16:48;45.71;37.62;57.83;;
76382;Laerm;65202;52.520;10.528;2023-04-24T08:19:15;45.97;38.78;56.63;;
76382;Laerm;65202;52.520;10.528;2023-04-24T08:21:42;45.71;38.20;57.09;;
76382;Laerm;65202;52.520;10.528;2023-04-24T08:24:09;44.86;38.27;58.37;;
76382;Laerm;65202;52.520;10.528;2023-04-24T08:26:37;44.30;38.29;54.57;;
76382;Laerm;65202;52.520;10.528;2023-04-24T08:29:04;44.09;37.25;54.98;;
76382;Laerm;65202;52.520;10.528;2023-04-24T08:31:32;45.02;39.09;64.00;;
76382;Laerm;65202;52.520;10.528;2023-04-24T08:33:59;45.49;37.67;55.22;;
76382;Laerm;65202;52.520;10.528;2023-04-24T08:36:27;48.31;38.20;61.82;;
76382;Laerm;65202;52.520;10.528;2023-04-24T08:39:12;45.89;38.52;59.96;;
76382;Laerm;65202;52.520;10.528;2023-04-24T08:41:41;46.58;38.83;59.95;;
76382;Laerm;65202;52.520;10.528;2023-04-24T08:44:11;46.00;38.55;61.36;;
76382;Laerm;65202;52.520;10.528;2023-04-24T08:46:40;53.12;42.83;69.67;;
76382;Laerm;65202;52.520;10.528;2023-04-24T08:49:08;53.93;41.52;63.07;;
76382;Laerm;65202;52.520;10.528;2023-04-24T08:51:37;58.39;46.31;75.36;;
76382;Laerm;65202;52.520;10.528;2023-04-24T08:54:05;55.11;46.32;76.19;;
76382;Laerm;65202;52.520;10.528;2023-04-24T08:56:36;65.62;49.48;88.32;;
76382;Laerm;65202;52.520;10.528;2023-04-24T08:59:06;49.03;41.43;61.64;;
76382;Laerm;65202;52.520;10.528;2023-04-24T09:01:34;49.20;41.11;59.59;;
76382;Laerm;65202;52.520;10.528;2023-04-24T09:04:03;52.19;43.21;61.93;;
76382;Laerm;65202;52.520;10.528;2023-04-24T09:06:32;66.74;43.32;79.03;;
76382;Laerm;65202;52.520;10.528;2023-04-24T09:09:01;57.61;45.34;71.17;;
76382;Laerm;65202;52.520;10.528;2023-04-24T09:11:31;48.19;40.38;65.54;;
76382;Laerm;65202;52.520;10.528;2023-04-24T09:14:00;45.49;39.03;59.61;;
76382;Laerm;65202;52.520;10.528;2023-04-24T09:16:28;45.57;39.73;55.04;;
76382;Laerm;65202;52.520;10.528;2023-04-24T09:18:56;45.79;40.84;55.12;;
76382;Laerm;65202;52.520;10.528;2023-04-24T09:21:23;48.83;41.12;61.07;;
76382;Laerm;65202;52.520;10.528;2023-04-24T09:24:03;48.03;40.09;63.30;;
76382;Laerm;65202;52.520;10.528;2023-04-24T09:26:32;48.26;40.68;63.14;;
76382;Laerm;65202;52.520;10.528;2023-04-24T09:29:00;50.88;41.66;64.68;;
76382;Laerm;65202;52.520;10.528;2023-04-24T09:31:29;50.96;41.82;60.89;;
76382;Laerm;65202;52.520;10.528;2023-04-24T09:34:03;48.14;40.43;58.08;;
76382;Laerm;65202;52.520;10.528;2023-04-24T09:36:36;49.90;40.80;60.37;;
76382;Laerm;65202;52.520;10.528;2023-04-24T09:39:10;50.32;42.05;63.87;;
76382;Laerm;65202;52.520;10.528;2023-04-24T09:41:49;49.15;39.08;59.43;;
76382;Laerm;65202;52.520;10.528;2023-04-24T09:44:22;47.19;39.13;65.61;;
76382;Laerm;65202;52.520;10.528;2023-04-24T09:46:53;47.24;39.00;57.05;;
76382;Laerm;65202;52.520;10.528;2023-04-24T09:49:30;45.83;38.84;57.21;;
76382;Laerm;65202;52.520;10.528;2023-04-24T09:52:10;49.94;38.16;68.43;;
76382;Laerm;65202;52.520;10.528;2023-04-24T09:54:39;49.21;39.60;63.00;;
76382;Laerm;65202;52.520;10.528;2023-04-24T09:57:09;48.05;38.38;58.99;;
76382;Laerm;65202;52.520;10.528;2023-04-24T09:59:42;49.58;38.93;60.12;;
76382;Laerm;65202;52.520;10.528;2023-04-24T10:02:20;44.74;37.50;55.64;;
76382;Laerm;65202;52.520;10.528;2023-04-24T10:05:05;48.74;39.86;61.83;;
76382;Laerm;65202;52.520;10.528;2023-04-24T10:07:33;49.62;41.65;61.10;;
76382;Laerm;65202;52.520;10.528;2023-04-24T10:10:00;50.96;42.73;63.67;;
76382;Laerm;65202;52.520;10.528;2023-04-24T10:12:29;46.83;39.66;66.18;;
76382;Laerm;65202;52.520;10.528;2023-04-24T10:14:58;50.24;39.50;66.80;;
76382;Laerm;65202;52.520;10.528;2023-04-24T10:17:27;49.21;39.41;65.65;;
76382;Laerm;65202;52.520;10.528;2023-04-24T10:19:56;49.04;41.65;65.85;;
76382;Laerm;65202;52.520;10.528;2023-04-24T10:22:24;46.10;38.90;56.60;;
76382;Laerm;65202;52.520;10.528;2023-04-24T10:24:52;49.07;37.23;63.03;;
76382;Laerm;65202;52.520;10.528;2023-04-24T10:27:20;50.06;39.82;63.73;;
76382;Laerm;65202;52.520;10.528;2023-04-24T10:29:52;50.14;40.19;64.30;;
76382;Laerm;65202;52.520;10.528;2023-04-24T10:32:20;48.49;42.66;61.73;;
76382;Laerm;65202;52.520;10.528;2023-04-24T10:34:47;47.42;41.67;56.69;;
76382;Laerm;65202;52.520;10.528;2023-04-24T10:37:15;50.57;40.55;66.84;;
76382;Laerm;65202;52.520;10.528;2023-04-24T10:39:48;49.31;39.83;64.74;;
76382;Laerm;65202;52.520;10.528;2023-04-24T10:42:16;48.42;38.99;61.98;;
76382;Laerm;65202;52.520;10.528;2023-04-24T10:44:47;48.29;38.32;61.74;;
76382;Laerm;65202;52.520;10.528;2023-04-24T10:47:14;46.64;39.78;73.04;;
76382;Laerm;65202;52.520;10.528;2023-04-24T10:49:42;51.13;42.84;70.26;;
76382;Laerm;65202;52.520;10.528;2023-04-24T10:52:09;52.50;40.43;65.76;;
76382;Laerm;65202;52.520;10.528;2023-04-24T10:59:49;46.99;39.84;63.98;;
76382;Laerm;65202;52.520;10.528;2023-04-24T11:02:18;47.53;38.80;57.71;;
76382;Laerm;65202;52.520;10.528;2023-04-24T11:05:06;49.98;38.90;69.24;;
76382;Laerm;65202;52.520;10.528;2023-04-24T11:08:14;47.68;40.90;58.55;;
76382;Laerm;65202;52.520;10.528;2023-04-24T11:10:50;47.58;39.25;57.71;;
76382;Laerm;65202;52.520;10.528;2023-04-24T11:13:22;52.85;39.56;71.83;;
76382;Laerm;65202;52.520;10.528;2023-04-24T11:16:29;50.30;41.19;64.38;;
76382;Laerm;65202;52.520;10.528;2023-04-24T11:19:09;46.48;41.05;56.43;;
76382;Laerm;65202;52.520;10.528;2023-04-24T11:21:45;51.53;41.77;66.94;;
76382;Laerm;65202;52.520;10.528;2023-04-24T11:27:17;51.67;43.02;69.62;;
76382;Laerm;65202;52.520;10.528;2023-04-24T11:32:30;49.31;39.87;65.30;;
76382;Laerm;65202;52.520;10.528;2023-04-24T11:35:20;50.94;41.35;65.20;;
76382;Laerm;65202;52.520;10.528;2023-04-24T11:37:50;46.84;41.00;57.70;;
76382;Laerm;65202;52.520;10.528;2023-04-24T11:40:38;49.87;40.20;66.16;;
76382;Laerm;65202;52.520;10.528;2023-04-24T11:43:06;49.73;40.18;66.90;;
76382;Laerm;65202;52.520;10.528;2023-04-24T11:45:34;49.56;38.66;67.21;;
76382;Laerm;65202;52.520;10.528;2023-04-24T11:48:03;51.21;40.41;69.90;;
76382;Laerm;65202;52.520;10.528;2023-04-24T11:50:30;46.64;39.75;57.76;;
76382;Laerm;65202;52.520;10.528;2023-04-24T11:52:58;49.16;39.09;66.17;;
76382;Laerm;65202;52.520;10.528;2023-04-24T11:55:28;47.05;40.54;58.19;;
76382;Laerm;65202;52.520;10.528;2023-04-24T11:57:58;47.34;40.43;58.82;;
76382;Laerm;65202;52.520;10.528;2023-04-24T12:00:32;44.66;39.04;54.97;;
76382;Laerm;65202;52.520;10.528;2023-04-24T12:03:11;45.50;37.89;59.46;;
76382;Laerm;65202;52.520;10.528;2023-04-24T12:05:40;46.02;41.01;53.55;;
76382;Laerm;65202;52.520;10.528;2023-04-24T12:08:07;45.39;40.95;57.45;;
76382;Laerm;65202;52.520;10.528;2023-04-24T12:10:35;46.64;40.71;55.54;;
76382;Laerm;65202;52.520;10.528;2023-04-24T12:13:03;46.14;41.08;65.47;;
76382;Laerm;65202;52.520;10.528;2023-04-24T12:15:30;50.14;41.27;68.94;;
76382;Laerm;65202;52.520;10.528;2023-04-24T12:17:57;49.58;41.12;65.07;;
76382;Laerm;65202;52.520;10.528;2023-04-24T12:20:30;50.70;41.39;64.53;;
76382;Laerm;65202;52.520;10.528;2023-04-24T12:23:00;45.45;40.34;55.74;;
76382;Laerm;65202;52.520;10.528;2023-04-24T12:25:30;49.35;40.59;66.24;;
76382;Laerm;65202;52.520;10.528;2023-04-24T12:30:44;45.09;39.45;54.51;;
76382;Laerm;65202;52.520;10.528;2023-04-24T12:33:11;46.31;39.53;58.39;;
76382;Laerm;65202;52.520;10.528;2023-04-24T12:35:40;48.54;39.60;66.67;;
76382;Laerm;65202;52.520;10.528;2023-04-24T12:38:11;45.46;39.00;58.55;;
76382;Laerm;65202;52.520;10.528;2023-04-24T12:40:43;50.69;38.21;66.41;;
76382;Laerm;65202;52.520;10.528;2023-04-24T12:43:19;47.30;40.16;59.31;;
76382;Laerm;65202;52.520;10.528;2023-04-24T12:45:49;53.66;41.38;69.52;;
76382;Laerm;65202;52.520;10.528;2023-04-24T12:48:16;50.31;40.33;64.55;;
76382;Laerm;65202;52.520;10.528;2023-04-24T12:50:44;47.40;41.18;60.60;;
76382;Laerm;65202;52.520;10.528;2023-04-24T12:53:14;48.30;41.36;66.16;;
76382;Laerm;65202;52.520;10.528;2023-04-24T12:55:41;48.69;41.44;61.38;;
76382;Laerm;65202;52.520;10.528;2023-04-24T12:58:08;51.28;41.54;68.09;;
76382;Laerm;65202;52.520;10.528;2023-04-24T13:00:36;47.17;40.68;59.13;;
76382;Laerm;65202;52.520;10.528;2023-04-24T13:03:05;48.62;40.47;65.08;;
76382;Laerm;65202;52.520;10.528;2023-04-24T13:05:33;45.92;39.48;61.98;;
76382;Laerm;65202;52.520;10.528;2023-04-24T13:08:00;50.26;38.91;69.40;;
76382;Laerm;65202;52.520;10.528;2023-04-24T13:10:27;45.31;37.88;56.54;;
76382;Laerm;65202;52.520;10.528;2023-04-24T13:12:54;49.08;39.75;59.88;;
76382;Laerm;65202;52.520;10.528;2023-04-24T13:15:22;48.27;38.83;62.85;;
76382;Laerm;65202;52.520;10.528;2023-04-24T13:17:49;51.25;40.46;63.20;;
76382;Laerm;65202;52.520;10.528;2023-04-24T13:20:17;53.56;40.99;67.98;;
76382;Laerm;65202;52.520;10.528;2023-04-24T13:22:45;53.08;43.31;65.57;;
76382;Laerm;65202;52.520;10.528;2023-04-24T13:25:12;50.38;41.31;66.14;;
76382;Laerm;65202;52.520;10.528;2023-04-24T13:27:39;48.56;43.10;63.02;;
76382;Laerm;65202;52.520;10.528;2023-04-24T13:30:07;48.11;43.50;58.68;;
76382;Laerm;65202;52.520;10.528;2023-04-24T13:32:35;51.33;45.05;66.78;;
76382;Laerm;65202;52.520;10.528;2023-04-24T13:35:04;49.80;44.15;61.69;;
76382;Laerm;65202;52.520;10.528;2023-04-24T13:37:31;48.44;42.50;61.77;;
76382;Laerm;65202;52.520;10.528;2023-04-24T13:39:58;50.41;42.72;63.72;;
76382;Laerm;65202;52.520;10.528;2023-04-24T13:42:25;47.56;41.08;57.84;;
76382;Laerm;65202;52.520;10.528;2023-04-24T13:44:52;50.60;40.92;66.69;;
76382;Laerm;65202;52.520;10.528;2023-04-24T13:47:20;50.61;40.66;63.43;;
76382;Laerm;65202;52.520;10.528;2023-04-24T13:49:48;48.68;39.94;63.02;;
76382;Laerm;65202;52.520;10.528;2023-04-24T13:52:15;45.57;40.70;54.86;;
76382;Laerm;65202;52.520;10.528;2023-04-24T13:54:42;46.48;40.32;61.27;;